createdAt,value
2022-10-09T00:00:18.991Z,11.35
2022-10-09T00:03:21.276Z,11.38
2022-10-09T00:06:25.037Z,11.65
2022-10-09T00:09:27.219Z,14.73
2022-10-09T00:12:29.445Z,11.10
2022-10-09T00:15:33.010Z,9.80
2022-10-09T00:18:35.771Z,11.82
2022-10-09T00:21:37.955Z,16.48
2022-10-09T00:24:40.219Z,11.40
2022-10-09T00:27:42.424Z,13.95
2022-10-09T00:30:46.032Z,9.35
2022-10-09T00:33:48.627Z,9.10
2022-10-09T00:36:50.746Z,11.20
2022-10-09T00:39:53.189Z,14.68
2022-10-09T00:42:57.091Z,13.40
2022-10-09T00:46:00.793Z,13.93
2022-10-09T00:49:14.604Z,10.23
2022-10-09T00:52:16.823Z,12.32
2022-10-09T00:55:19.134Z,12.52
2022-10-09T00:58:22.131Z,10.60
2022-10-09T01:01:26.129Z,15.45
2022-10-09T01:04:28.404Z,11.68
2022-10-09T01:07:35.517Z,13.73
2022-10-09T01:10:44.795Z,14.18
2022-10-09T01:13:51.746Z,14.63
2022-10-09T01:17:04.086Z,23.00
2022-10-09T01:20:22.325Z,12.95
2022-10-09T01:23:46.690Z,12.50
2022-10-09T01:27:10.069Z,14.90
2022-10-09T01:30:13.065Z,11.98
2022-10-09T01:33:15.865Z,12.52
2022-10-09T01:36:18.779Z,13.18
2022-10-09T01:39:22.801Z,14.20
2022-10-09T01:42:27.651Z,12.13
2022-10-09T01:45:38.018Z,12.90
2022-10-09T01:48:40.353Z,13.82
2022-10-09T01:51:49.775Z,9.68
2022-10-09T01:55:08.541Z,12.95
2022-10-09T01:58:18.715Z,13.57
2022-10-09T02:01:22.393Z,15.20
2022-10-09T02:04:25.244Z,14.40
2022-10-09T02:07:28.553Z,11.35
2022-10-09T02:10:31.411Z,11.23
2022-10-09T02:13:35.529Z,10.20
2022-10-09T02:16:39.401Z,13.93
2022-10-09T02:19:43.750Z,15.63
2022-10-09T02:22:46.627Z,15.52
2022-10-09T02:25:49.538Z,19.85
2022-10-09T02:28:53.210Z,13.07
2022-10-09T02:31:55.412Z,11.77
2022-10-09T02:34:57.633Z,8.35
2022-10-09T02:37:59.850Z,13.02
2022-10-09T02:41:02.291Z,10.43
2022-10-09T02:44:06.150Z,12.75
2022-10-09T02:47:08.409Z,11.48
2022-10-09T02:50:10.645Z,16.73
2022-10-09T02:53:12.864Z,9.00
2022-10-09T02:56:15.041Z,10.35
2022-10-09T02:59:18.876Z,11.63
2022-10-09T03:02:21.135Z,16.40
2022-10-09T03:05:23.422Z,14.55
2022-10-09T03:08:25.597Z,14.70
2022-10-09T03:11:27.822Z,14.82
2022-10-09T03:14:31.573Z,14.05
2022-10-09T03:17:33.712Z,11.70
2022-10-09T03:20:35.934Z,13.95
2022-10-09T03:23:38.434Z,15.30
2022-10-09T03:26:40.643Z,10.55
2022-10-09T03:29:44.199Z,11.90
2022-10-09T03:32:46.799Z,16.95
2022-10-09T03:35:49.893Z,11.52
2022-10-09T03:38:52.493Z,11.63
2022-10-09T03:41:54.778Z,15.75
2022-10-09T03:45:00.802Z,10.60
2022-10-09T03:48:03.026Z,17.70
2022-10-09T03:51:05.556Z,9.90
2022-10-09T03:54:07.719Z,12.48
2022-10-09T03:57:09.930Z,13.63
2022-10-09T04:00:14.794Z,13.93
2022-10-09T04:03:17.004Z,12.57
2022-10-09T04:06:19.199Z,14.82
2022-10-09T04:09:21.384Z,13.50
2022-10-09T04:12:23.776Z,11.23
2022-10-09T04:15:27.551Z,14.48
2022-10-09T04:18:30.680Z,10.88
2022-10-09T04:21:33.728Z,10.63
2022-10-09T04:24:36.037Z,15.95
2022-10-09T04:27:38.353Z,11.32
2022-10-09T04:30:41.906Z,11.93
2022-10-09T04:33:44.178Z,12.38
2022-10-09T04:36:58.110Z,10.60
2022-10-09T04:40:00.298Z,14.15
2022-10-09T04:43:02.554Z,13.38
2022-10-09T04:46:07.762Z,15.40
2022-10-09T04:49:11.531Z,12.48
2022-10-09T04:52:13.661Z,10.73
2022-10-09T04:55:15.858Z,13.43
2022-10-09T04:58:18.021Z,11.32
2022-10-09T05:01:23.330Z,15.32
2022-10-09T05:04:25.537Z,12.85
2022-10-09T05:07:27.740Z,13.90
2022-10-09T05:10:30.514Z,11.77
2022-10-09T05:13:34.968Z,12.73
2022-10-09T05:17:08.361Z,15.23
2022-10-09T05:20:00.845Z,14.77
2022-10-09T05:23:03.136Z,11.27
2022-10-09T05:26:07.715Z,12.27
2022-10-09T05:29:10.004Z,9.05
2022-10-09T05:32:14.636Z,11.23
2022-10-09T05:35:16.775Z,12.43
2022-10-09T05:38:19.352Z,12.10
2022-10-09T05:41:21.518Z,12.98
2022-10-09T05:44:23.789Z,9.18
2022-10-09T05:47:27.277Z,9.32
2022-10-09T05:50:29.383Z,10.07
2022-10-09T05:53:31.936Z,21.40
2022-10-09T05:56:35.927Z,8.80
2022-10-09T05:59:38.167Z,13.10
2022-10-09T06:02:44.326Z,13.45
2022-10-09T06:05:46.604Z,13.07
2022-10-09T06:08:49.306Z,11.05
2022-10-09T06:11:52.213Z,11.77
2022-10-09T06:14:54.394Z,10.93
2022-10-09T06:17:57.879Z,7.22
2022-10-09T06:21:01.483Z,7.47
2022-10-09T06:24:04.840Z,9.93
2022-10-09T06:27:06.996Z,8.38
2022-10-09T06:30:10.276Z,7.05
2022-10-09T06:33:13.914Z,9.05
2022-10-09T06:36:17.842Z,8.13
2022-10-09T06:39:20.032Z,9.30
2022-10-09T06:42:22.432Z,8.32
2022-10-09T06:45:37.597Z,7.05
2022-10-09T06:48:41.565Z,10.43
2022-10-09T06:51:44.203Z,7.55
2022-10-09T06:54:46.524Z,6.07
2022-10-09T06:57:48.669Z,6.68
2022-10-09T07:00:50.899Z,4.65
2022-10-09T07:03:58.463Z,6.93
2022-10-09T07:07:00.945Z,7.35
2022-10-09T07:10:03.216Z,7.25
2022-10-09T07:13:05.356Z,6.50
2022-10-09T07:16:08.043Z,7.65
2022-10-09T07:19:13.160Z,6.75
2022-10-09T07:22:15.359Z,6.88
2022-10-09T07:25:17.525Z,3.00
2022-10-09T07:28:19.857Z,7.30
2022-10-09T07:31:23.130Z,10.02
2022-10-09T07:34:29.340Z,3.63
2022-10-09T07:37:31.489Z,6.30
2022-10-09T07:40:34.380Z,6.40
2022-10-09T07:43:40.940Z,4.88
2022-10-09T07:46:43.147Z,4.85
2022-10-09T07:49:46.863Z,6.03
2022-10-09T07:52:49.201Z,2.22
2022-10-09T07:55:54.606Z,5.45
2022-10-09T07:58:58.770Z,6.30
2022-10-09T08:02:01.102Z,5.75
2022-10-09T08:05:08.513Z,4.78
2022-10-09T08:08:10.826Z,4.20
2022-10-09T08:11:15.157Z,4.35
2022-10-09T08:14:19.613Z,4.07
2022-10-09T08:17:22.131Z,4.78
2022-10-09T08:20:25.759Z,6.65
2022-10-09T08:23:28.306Z,3.92
2022-10-09T08:26:31.058Z,4.53
2022-10-09T08:29:36.697Z,3.72
2022-10-09T08:32:42.202Z,6.10
2022-10-09T08:35:45.860Z,4.53
2022-10-09T08:38:48.719Z,5.03
2022-10-09T08:41:54.757Z,5.72
2022-10-09T08:44:57.186Z,4.95
2022-10-09T08:48:03.741Z,6.53
2022-10-09T08:51:15.808Z,5.63
2022-10-09T08:54:24.664Z,4.03
2022-10-09T08:57:30.788Z,2.53
2022-10-09T09:00:36.297Z,5.95
2022-10-09T09:03:48.795Z,4.18
2022-10-09T09:06:57.182Z,4.97
2022-10-09T09:10:03.517Z,4.30
2022-10-09T09:13:16.090Z,5.97
2022-10-09T09:16:25.730Z,4.35
2022-10-09T09:19:44.554Z,4.60
2022-10-09T09:22:49.749Z,6.30
2022-10-09T09:25:52.385Z,5.40
2022-10-09T09:28:59.298Z,3.53
2022-10-09T09:32:02.001Z,4.07
2022-10-09T09:35:13.397Z,3.22
2022-10-09T09:41:19.198Z,2.80
2022-10-09T09:44:21.647Z,7.32
2022-10-09T09:47:29.653Z,4.45
2022-10-09T09:50:48.706Z,3.60
2022-10-09T09:54:00.142Z,4.15
2022-10-09T09:57:14.854Z,4.60
2022-10-09T10:00:21.106Z,3.97
2022-10-09T10:03:24.119Z,4.20
2022-10-09T10:06:30.028Z,2.47
2022-10-09T10:09:33.782Z,3.72
2022-10-09T10:12:40.566Z,5.63
2022-10-09T10:15:49.959Z,5.35
2022-10-09T10:18:53.679Z,1.58
2022-10-09T10:21:57.107Z,2.33
2022-10-09T10:25:00.667Z,3.45
2022-10-09T10:28:07.436Z,4.10
2022-10-09T10:31:15.719Z,2.42
2022-10-09T10:34:21.976Z,3.50
2022-10-09T10:37:47.484Z,3.30
2022-10-09T10:41:48.870Z,2.47
2022-10-09T10:45:26.559Z,4.30
2022-10-09T10:54:23.350Z,3.55
2022-10-09T10:57:47.999Z,7.22
2022-10-09T11:17:14.699Z,5.28
2022-10-09T12:08:06.950Z,2.03
2022-10-09T12:11:14.379Z,4.38
2022-10-09T12:14:25.414Z,2.78
2022-10-09T12:17:38.364Z,3.50
2022-10-09T12:20:45.214Z,2.22
2022-10-09T12:23:51.253Z,2.45
2022-10-09T12:26:56.026Z,0.60
2022-10-09T12:30:00.389Z,5.35
2022-10-09T12:33:07.802Z,2.25
2022-10-09T12:36:14.223Z,1.15
2022-10-09T12:39:21.018Z,1.80
2022-10-09T12:42:24.596Z,2.35
2022-10-09T12:45:30.192Z,1.17
2022-10-09T12:48:37.364Z,1.17
2022-10-09T12:51:39.742Z,1.95
2022-10-09T12:54:44.872Z,2.70
2022-10-09T12:57:52.481Z,1.88
2022-10-09T13:00:57.088Z,2.45
2022-10-09T13:04:00.641Z,1.92
2022-10-09T13:07:06.446Z,3.00
2022-10-09T13:10:17.712Z,1.10
2022-10-09T13:13:21.955Z,2.70
2022-10-09T13:16:24.894Z,2.85
2022-10-09T13:19:29.246Z,1.52
2022-10-09T13:22:33.640Z,3.72
2022-10-09T13:25:41.199Z,1.67
2022-10-09T13:28:44.164Z,4.93
2022-10-09T13:31:49.435Z,2.15
2022-10-09T13:34:54.974Z,2.85
2022-10-09T13:37:57.218Z,2.10
2022-10-09T13:41:00.685Z,2.40
2022-10-09T13:44:02.876Z,1.77
2022-10-09T13:47:05.345Z,3.30
2022-10-09T13:50:08.185Z,1.98
2022-10-09T13:53:10.371Z,5.43
2022-10-09T13:56:14.379Z,2.00
2022-10-09T13:59:17.334Z,1.83
2022-10-09T14:02:19.819Z,2.55
2022-10-09T14:05:22.215Z,1.20
2022-10-09T14:08:24.500Z,1.30
2022-10-09T14:11:28.046Z,2.05
2022-10-09T14:14:30.225Z,2.78
2022-10-09T14:17:43.784Z,1.77
2022-10-09T14:20:57.361Z,3.50
2022-10-09T14:24:40.875Z,2.10
2022-10-09T14:27:50.654Z,2.30
2022-10-09T14:31:13.841Z,1.13
2022-10-09T14:35:04.934Z,2.50
2022-10-09T14:38:45.433Z,2.25
2022-10-09T14:56:07.973Z,1.93
2022-10-09T14:59:50.534Z,2.33
2022-10-09T15:02:56.403Z,0.98
2022-10-09T15:06:25.127Z,3.80
2022-10-09T15:09:32.920Z,1.63
2022-10-09T15:16:05.157Z,2.33
2022-10-09T15:19:09.568Z,0.90
2022-10-09T15:22:14.884Z,3.88
2022-10-09T15:25:24.868Z,1.52
2022-10-09T15:28:28.116Z,1.25
2022-10-09T15:31:35.238Z,1.48
2022-10-09T15:34:41.247Z,3.78
2022-10-09T15:40:51.248Z,2.05
2022-10-09T15:44:04.705Z,1.10
2022-10-09T15:47:09.496Z,3.20
2022-10-09T15:50:22.215Z,3.70
2022-10-09T15:58:25.525Z,2.70
2022-10-09T16:01:38.444Z,5.15
2022-10-09T16:04:43.507Z,2.28
2022-10-09T16:07:47.608Z,5.00
2022-10-09T16:11:06.099Z,1.83
2022-10-09T16:25:01.059Z,2.30
2022-10-09T16:43:04.266Z,2.50
2022-10-09T16:54:48.135Z,1.27
2022-10-09T16:58:07.513Z,2.78
2022-10-09T17:02:32.653Z,1.83
2022-10-09T17:05:44.640Z,2.05
2022-10-09T17:11:55.271Z,2.20
2022-10-09T17:15:02.060Z,1.67
2022-10-09T17:18:04.671Z,2.00
2022-10-09T17:21:15.927Z,2.30
2022-10-09T17:24:18.159Z,1.30
2022-10-09T17:27:20.467Z,2.13
2022-10-09T17:30:25.030Z,1.65
2022-10-09T17:33:27.624Z,3.80
2022-10-09T17:36:33.064Z,1.52
2022-10-09T17:39:35.414Z,3.00
2022-10-09T17:42:37.613Z,3.47
2022-10-09T17:45:40.276Z,3.28
2022-10-09T17:48:50.275Z,1.92
2022-10-09T17:51:54.470Z,4.80
2022-10-09T17:54:56.848Z,3.33
2022-10-09T17:58:01.213Z,3.38
2022-10-09T18:01:05.352Z,2.35
2022-10-09T18:04:10.817Z,1.48
2022-10-09T18:07:24.754Z,3.58
2022-10-09T18:10:27.480Z,4.30
2022-10-09T18:13:32.504Z,3.83
2022-10-09T18:16:54.134Z,5.30
2022-10-09T18:20:02.963Z,3.70
2022-10-09T18:23:11.932Z,7.60
2022-10-09T18:26:26.067Z,3.08
2022-10-09T18:29:31.047Z,4.70
2022-10-09T18:32:36.158Z,5.10
2022-10-09T18:35:39.565Z,4.25
2022-10-09T18:38:54.558Z,5.00
2022-10-09T18:42:05.983Z,4.80
2022-10-09T18:45:34.442Z,4.35
2022-10-09T18:48:45.278Z,3.70
2022-10-09T18:51:49.972Z,2.13
2022-10-09T18:54:57.077Z,4.03
2022-10-09T18:58:00.479Z,4.63
2022-10-09T19:01:06.699Z,8.77
2022-10-09T19:04:29.828Z,2.35
2022-10-09T19:07:33.501Z,2.85
2022-10-09T19:10:37.234Z,1.40
2022-10-09T19:13:40.206Z,3.20
2022-10-09T19:16:47.626Z,4.40
2022-10-09T19:19:49.973Z,1.38
2022-10-09T19:22:52.170Z,2.97
2022-10-09T19:25:57.311Z,2.65
2022-10-09T19:28:59.676Z,2.45
2022-10-09T19:32:02.304Z,4.38
2022-10-09T19:35:09.266Z,3.17
2022-10-09T19:38:11.823Z,3.78
2022-10-09T19:41:16.088Z,3.40
2022-10-09T19:44:21.691Z,3.30
2022-10-09T19:47:25.889Z,3.35
2022-10-09T19:50:29.982Z,2.75
2022-10-09T19:53:32.401Z,2.38
2022-10-09T19:56:36.588Z,2.78
2022-10-09T19:59:38.770Z,3.95
2022-10-09T20:02:41.134Z,4.68
2022-10-09T20:05:43.438Z,4.40
2022-10-09T20:08:46.195Z,2.30
2022-10-09T20:11:52.983Z,3.50
2022-10-09T20:14:59.565Z,3.35
2022-10-09T20:23:17.243Z,2.55
2022-10-09T20:26:21.059Z,3.78
2022-10-09T20:29:33.237Z,3.75
2022-10-09T20:32:49.617Z,2.78
2022-10-09T20:36:03.860Z,2.60
2022-10-09T20:39:13.511Z,4.18
2022-10-09T20:42:45.551Z,6.25
2022-10-09T20:46:33.705Z,3.75
2022-10-09T20:49:56.674Z,2.88
2022-10-09T20:56:34.027Z,3.03
2022-10-09T20:59:36.275Z,3.50
2022-10-09T21:02:39.886Z,4.95
2022-10-09T21:05:42.598Z,4.65
2022-10-09T21:08:44.959Z,4.63
2022-10-09T21:11:47.336Z,3.80
2022-10-09T21:14:49.582Z,2.33
2022-10-09T21:17:53.223Z,6.82
2022-10-09T21:20:57.086Z,3.67
2022-10-09T21:24:00.817Z,3.55
2022-10-09T21:27:04.524Z,4.88
2022-10-09T21:30:08.358Z,5.53
2022-10-09T21:33:12.654Z,2.78
2022-10-09T21:36:23.080Z,11.40
2022-10-09T21:39:25.350Z,4.03
2022-10-09T21:42:27.684Z,2.58
2022-10-09T21:45:29.983Z,3.13
2022-10-09T21:48:35.821Z,3.85
2022-10-09T21:51:38.037Z,4.30
2022-10-09T21:54:41.249Z,6.50
2022-10-09T21:57:45.195Z,4.55
2022-10-09T22:00:55.398Z,6.07
2022-10-09T22:03:58.983Z,2.92
2022-10-09T22:07:01.187Z,4.22
2022-10-09T22:10:04.529Z,3.35
2022-10-09T22:13:06.797Z,2.13
2022-10-09T22:16:12.149Z,3.70
2022-10-09T22:19:15.743Z,3.45
2022-10-09T22:22:18.051Z,2.65
2022-10-09T22:25:20.334Z,6.05
2022-10-09T22:28:23.099Z,4.03
2022-10-09T22:31:27.341Z,2.10
2022-10-09T22:34:30.900Z,3.20
2022-10-09T22:37:33.097Z,4.05
2022-10-09T22:40:37.484Z,3.45
2022-10-09T22:43:41.301Z,5.15
2022-10-09T22:46:44.291Z,3.03
2022-10-09T22:49:49.579Z,4.70
2022-10-09T22:52:51.988Z,3.17
2022-10-09T22:55:54.389Z,4.30
2022-10-09T22:58:56.769Z,4.18
2022-10-09T23:02:00.049Z,4.07
2022-10-09T23:05:04.153Z,3.95
2022-10-09T23:08:06.406Z,3.88
2022-10-09T23:11:09.559Z,4.53
2022-10-09T23:14:12.251Z,4.88
2022-10-09T23:17:14.473Z,3.50
2022-10-09T23:20:18.287Z,2.55
2022-10-09T23:23:20.544Z,5.53
2022-10-09T23:26:25.532Z,3.38
2022-10-09T23:29:27.820Z,3.03
2022-10-09T23:32:30.006Z,4.28
2022-10-09T23:35:40.368Z,5.70
2022-10-09T23:38:42.949Z,2.97
2022-10-09T23:41:45.214Z,5.38
2022-10-09T23:44:47.489Z,6.65
2022-10-09T23:47:49.714Z,2.80
2022-10-09T23:50:54.122Z,6.22
2022-10-09T23:53:57.148Z,3.28
2022-10-09T23:56:59.330Z,3.55
